Time;durP1;ratioP1;P1;durP2;ratioP2;P2;SDS_P1;SDS_P2;PMS_P1;PMS_P2;Temp;Humidity;BMP_temperature;BMP_pressure;BME280_temperature;BME280_humidity;BME280_pressure;Samples;Min_cycle;Max_cycle;Signal;HPM_P1;HPM_P2
2021/10/06 00:00:15;;;;;;;8.25;5.93;;;11.30;99.90;;;;;;5106770;28;20058;-46
2021/10/06 00:02:42;;;;;;;9.55;5.53;;;11.30;99.90;;;;;;5079711;28;20142;-46
2021/10/06 00:05:09;;;;;;;10.23;4.70;;;11.30;99.90;;;;;;5106781;28;20083;-46
2021/10/06 00:07:35;;;;;;;13.57;5.90;;;11.30;99.90;;;;;;5107668;28;20085;-45
2021/10/06 00:10:02;;;;;;;10.52;5.40;;;11.30;99.90;;;;;;5105420;28;20053;-46
2021/10/06 00:12:29;;;;;;;10.15;4.57;;;11.30;99.90;;;;;;5088664;28;20720;-47
2021/10/06 00:14:55;;;;;;;9.60;4.93;;;11.30;99.90;;;;;;5106669;28;20118;-46
2021/10/06 00:17:21;;;;;;;9.40;4.97;;;11.30;99.90;;;;;;5107857;28;20453;-47
2021/10/06 00:19:52;;;;;;;7.70;4.55;;;11.20;99.90;;;;;;5107147;28;20104;-47
2021/10/06 00:22:21;;;;;;;8.35;3.92;;;11.20;99.90;;;;;;5106542;28;20127;-47
2021/10/06 00:24:50;;;;;;;7.68;4.25;;;11.20;99.90;;;;;;5106554;28;20062;-45
2021/10/06 00:27:16;;;;;;;9.85;4.72;;;11.20;99.90;;;;;;5107173;28;20055;-45
2021/10/06 00:29:42;;;;;;;8.95;4.85;;;11.20;99.90;;;;;;5106522;28;20056;-46
2021/10/06 00:32:10;;;;;;;9.30;4.63;;;11.20;99.90;;;;;;5106289;28;20081;-46
2021/10/06 00:34:37;;;;;;;11.70;4.60;;;11.20;99.90;;;;;;5106828;28;20054;-46
2021/10/06 00:37:03;;;;;;;9.90;4.85;;;11.10;99.90;;;;;;5107295;28;20077;-46
2021/10/06 00:39:29;;;;;;;10.25;5.05;;;11.20;99.90;;;;;;5107556;28;20130;-47
2021/10/06 00:41:57;;;;;;;7.60;3.85;;;11.10;99.90;;;;;;5107147;28;20094;-46
2021/10/06 00:44:24;;;;;;;12.43;4.35;;;11.10;99.90;;;;;;5105987;28;20674;-46
2021/10/06 00:46:50;;;;;;;8.73;4.75;;;11.10;99.90;;;;;;5107215;28;20043;-45
2021/10/06 00:49:17;;;;;;;8.68;4.38;;;11.10;99.90;;;;;;5105691;28;20169;-46
2021/10/06 00:51:43;;;;;;;8.68;4.38;;;11.10;99.90;;;;;;5106071;28;20048;-45
2021/10/06 00:54:10;;;;;;;7.95;4.18;;;11.10;99.90;;;;;;5070764;28;20059;-45
2021/10/06 00:56:38;;;;;;;8.10;4.15;;;11.00;99.90;;;;;;5106865;28;20058;-46
2021/10/06 00:59:04;;;;;;;7.82;4.25;;;11.00;99.90;;;;;;5106096;28;20058;-46
2021/10/06 01:01:31;;;;;;;8.75;4.40;;;11.00;99.90;;;;;;5107132;28;20051;-45
2021/10/06 01:03:58;;;;;;;9.57;4.93;;;11.00;99.90;;;;;;5105600;28;20066;-45
2021/10/06 01:06:24;;;;;;;8.52;4.63;;;11.00;99.90;;;;;;5105444;28;20099;-46
2021/10/06 01:08:52;;;;;;;8.38;4.75;;;11.00;99.90;;;;;;5105427;28;20047;-46
2021/10/06 01:11:21;;;;;;;10.40;4.60;;;11.00;99.90;;;;;;5105347;28;20135;-46
2021/10/06 01:13:47;;;;;;;7.00;4.35;;;11.00;99.90;;;;;;5104892;28;20192;-47
2021/10/06 01:16:17;;;;;;;7.15;4.00;;;11.00;99.90;;;;;;5104167;28;20047;-46
2021/10/06 01:18:43;;;;;;;8.77;4.63;;;11.00;99.90;;;;;;5087319;28;20089;-46
2021/10/06 01:21:14;;;;;;;8.88;4.43;;;11.00;99.90;;;;;;5103421;28;20758;-48
2021/10/06 01:23:44;;;;;;;7.97;4.15;;;11.00;99.90;;;;;;5103219;28;20122;-45
2021/10/06 01:26:19;;;;;;;8.02;4.43;;;11.00;99.90;;;;;;5105510;28;20055;-48
2021/10/06 01:28:47;;;;;;;5.60;4.00;;;11.00;99.90;;;;;;5106347;28;20473;-46
2021/10/06 01:31:13;;;;;;;8.95;4.60;;;11.00;99.90;;;;;;5104940;28;20059;-47
2021/10/06 01:33:42;;;;;;;6.95;3.80;;;11.00;99.90;;;;;;5087128;28;20059;-47
2021/10/06 01:36:08;;;;;;;7.70;4.03;;;11.00;99.90;;;;;;5105651;28;20076;-47
2021/10/06 01:38:37;;;;;;;9.82;4.10;;;11.00;99.90;;;;;;5107447;28;20051;-46
2021/10/06 01:41:04;;;;;;;8.10;3.75;;;11.00;99.90;;;;;;5104361;28;20044;-46
2021/10/06 01:43:30;;;;;;;7.18;3.63;;;11.00;99.90;;;;;;5103940;28;20051;-47
2021/10/06 01:45:56;;;;;;;6.35;3.75;;;11.00;99.90;;;;;;5105503;28;20051;-46
2021/10/06 01:48:22;;;;;;;7.53;3.58;;;11.00;99.90;;;;;;5106312;28;20150;-46
2021/10/06 01:50:51;;;;;;;8.05;4.00;;;10.90;99.90;;;;;;5105161;28;20110;-47
2021/10/06 01:53:17;;;;;;;5.15;3.92;;;10.90;99.90;;;;;;5105033;28;20074;-46
2021/10/06 01:55:43;;;;;;;10.98;3.70;;;10.90;99.90;;;;;;5105753;28;20081;-47
2021/10/06 01:58:13;;;;;;;8.77;4.32;;;10.90;99.90;;;;;;5086609;28;20052;-46
2021/10/06 02:00:47;;;;;;;8.15;4.20;;;10.80;99.90;;;;;;5104896;28;20047;-50
2021/10/06 02:03:13;;;;;;;9.15;4.00;;;10.80;99.90;;;;;;5065854;28;20056;-48
2021/10/06 02:05:39;;;;;;;8.45;4.43;;;10.80;99.90;;;;;;5084211;28;20051;-48
2021/10/06 02:08:08;;;;;;;8.98;4.00;;;10.80;99.90;;;;;;5085326;28;20115;-47
2021/10/06 02:10:39;;;;;;;7.30;4.13;;;10.70;99.90;;;;;;5083856;28;20044;-45
2021/10/06 02:13:05;;;;;;;9.20;4.47;;;10.70;99.90;;;;;;5083657;28;20056;-45
2021/10/06 02:15:31;;;;;;;6.75;4.88;;;10.60;99.90;;;;;;5084106;28;20493;-48
2021/10/06 02:17:58;;;;;;;12.27;4.40;;;10.60;99.90;;;;;;5083379;28;20056;-49
2021/10/06 02:20:24;;;;;;;6.55;4.72;;;10.60;99.90;;;;;;5087356;28;20058;-47
2021/10/06 02:22:53;;;;;;;10.00;5.40;;;10.60;99.90;;;;;;5089574;28;20056;-47
2021/10/06 02:25:19;;;;;;;11.20;6.30;;;10.70;99.90;;;;;;5088523;28;20120;-47
2021/10/06 02:27:45;;;;;;;12.10;6.07;;;10.60;99.90;;;;;;5088084;28;20455;-46
2021/10/06 02:30:13;;;;;;;9.70;5.78;;;10.60;99.90;;;;;;5088541;28;20098;-47
2021/10/06 02:32:43;;;;;;;10.73;6.03;;;10.60;99.90;;;;;;5089105;28;20052;-46
2021/10/06 02:35:10;;;;;;;8.10;6.20;;;10.60;99.90;;;;;;5087159;28;20185;-48
2021/10/06 02:37:38;;;;;;;10.90;6.50;;;10.60;99.90;;;;;;5086794;28;20053;-46
2021/10/06 02:40:07;;;;;;;9.50;6.97;;;10.60;99.90;;;;;;5088071;28;20051;-47
2021/10/06 02:42:33;;;;;;;15.50;7.57;;;10.50;99.90;;;;;;5088325;28;20101;-46
2021/10/06 02:45:02;;;;;;;11.40;7.32;;;10.60;99.90;;;;;;5087548;28;20052;-46
2021/10/06 02:47:28;;;;;;;13.13;8.63;;;10.60;99.90;;;;;;5088779;28;20416;-46
2021/10/06 02:49:54;;;;;;;12.10;7.22;;;10.60;99.90;;;;;;5086730;28;20492;-47
2021/10/06 02:52:25;;;;;;;10.88;8.05;;;10.70;99.90;;;;;;5087736;28;20052;-46
2021/10/06 02:54:51;;;;;;;11.77;7.78;;;10.70;99.90;;;;;;5087617;28;20050;-47
2021/10/06 02:57:17;;;;;;;11.65;7.70;;;10.70;99.90;;;;;;5088165;28;20120;-48
2021/10/06 02:59:43;;;;;;;12.15;6.80;;;10.80;99.90;;;;;;5087897;28;20078;-46
2021/10/06 03:02:09;;;;;;;11.05;6.80;;;10.80;99.90;;;;;;5088770;28;20056;-46
2021/10/06 03:04:38;;;;;;;11.27;7.60;;;10.80;99.90;;;;;;5085111;28;20420;-48
2021/10/06 03:07:07;;;;;;;12.30;7.75;;;10.90;99.90;;;;;;5087430;28;21030;-46
2021/10/06 03:09:34;;;;;;;12.65;6.65;;;10.90;99.90;;;;;;5087648;28;20109;-45
2021/10/06 03:12:04;;;;;;;12.20;6.88;;;10.80;99.90;;;;;;5087915;28;21474;-48
2021/10/06 03:14:30;;;;;;;9.70;6.82;;;10.90;99.90;;;;;;5086347;28;20044;-47
2021/10/06 03:16:56;;;;;;;9.90;6.85;;;10.80;99.90;;;;;;5087637;28;20063;-46
2021/10/06 03:19:22;;;;;;;8.85;6.75;;;10.80;99.90;;;;;;5087710;28;20071;-47
2021/10/06 03:21:48;;;;;;;10.00;6.93;;;10.90;99.90;;;;;;5085732;28;20068;-47
2021/10/06 03:24:14;;;;;;;9.52;7.03;;;10.90;99.90;;;;;;5085844;28;20101;-46
2021/10/06 03:26:43;;;;;;;8.43;6.32;;;10.90;99.90;;;;;;5086552;28;20048;-46
2021/10/06 03:29:10;;;;;;;8.73;6.43;;;10.90;99.90;;;;;;5087225;28;20185;-47
2021/10/06 03:31:38;;;;;;;11.02;5.85;;;11.00;99.90;;;;;;5087352;28;20138;-46
2021/10/06 03:34:05;;;;;;;13.32;6.30;;;11.00;99.90;;;;;;5086555;28;20064;-46
2021/10/06 03:36:31;;;;;;;10.20;6.45;;;11.00;99.90;;;;;;5086740;28;20497;-46
2021/10/06 03:39:00;;;;;;;9.13;5.53;;;11.00;99.90;;;;;;5087559;28;20063;-46
2021/10/06 03:41:26;;;;;;;10.85;6.25;;;11.10;99.90;;;;;;5087044;28;20470;-45
2021/10/06 03:43:52;;;;;;;9.48;5.80;;;11.10;99.90;;;;;;5087217;28;20105;-48
2021/10/06 03:46:18;;;;;;;9.95;5.97;;;11.20;99.90;;;;;;5086420;28;20048;-46
2021/10/06 03:48:45;;;;;;;15.15;5.65;;;11.20;99.90;;;;;;5087256;28;20613;-47
2021/10/06 03:51:11;;;;;;;14.45;5.90;;;11.20;99.90;;;;;;5087076;28;20455;-47
2021/10/06 03:53:39;;;;;;;7.90;5.15;;;11.20;99.90;;;;;;5084598;28;20055;-48
2021/10/06 03:56:05;;;;;;;8.55;4.70;;;11.10;99.90;;;;;;5086198;28;21490;-48
2021/10/06 03:58:31;;;;;;;9.98;5.22;;;11.10;99.90;;;;;;5086572;28;20052;-46
2021/10/06 04:01:00;;;;;;;9.18;4.72;;;11.10;99.90;;;;;;5085968;28;20099;-49
2021/10/06 04:03:29;;;;;;;8.52;4.45;;;11.10;99.90;;;;;;5091264;28;20058;-47
2021/10/06 04:05:58;;;;;;;11.23;4.50;;;11.00;99.90;;;;;;5106715;28;20086;-47
2021/10/06 04:08:24;;;;;;;7.97;4.40;;;11.00;99.90;;;;;;5106928;28;20092;-46
2021/10/06 04:10:51;;;;;;;8.45;4.07;;;11.00;99.90;;;;;;5087582;28;20069;-45
2021/10/06 04:13:20;;;;;;;8.45;4.85;;;11.00;99.90;;;;;;5105806;28;20047;-45
2021/10/06 04:15:46;;;;;;;10.68;4.95;;;11.00;99.90;;;;;;5106924;28;20545;-46
2021/10/06 04:18:15;;;;;;;8.57;5.15;;;11.00;99.90;;;;;;5106718;28;20483;-46
2021/10/06 04:20:41;;;;;;;12.23;5.05;;;11.10;99.90;;;;;;5107523;28;20108;-48
2021/10/06 04:23:08;;;;;;;8.50;5.90;;;11.10;99.90;;;;;;5106644;28;20051;-46
2021/10/06 04:25:34;;;;;;;9.02;6.05;;;11.10;99.90;;;;;;5106589;28;20059;-47
2021/10/06 04:28:00;;;;;;;6.72;5.68;;;11.00;99.90;;;;;;5105210;28;20082;-46
2021/10/06 04:30:29;;;;;;;9.25;6.25;;;11.00;99.90;;;;;;5107357;28;20472;-47
2021/10/06 04:32:55;;;;;;;9.20;6.75;;;11.00;99.90;;;;;;5107422;28;20096;-47
2021/10/06 04:35:25;;;;;;;11.38;6.68;;;11.00;99.90;;;;;;5106108;28;20101;-46
2021/10/06 04:37:51;;;;;;;11.30;8.00;;;11.00;99.90;;;;;;5107015;28;20050;-46
2021/10/06 04:40:17;;;;;;;10.57;7.90;;;10.90;99.90;;;;;;5105491;28;20058;-46
2021/10/06 04:42:45;;;;;;;12.63;7.82;;;10.90;99.90;;;;;;5104110;28;20420;-47
2021/10/06 04:45:13;;;;;;;10.88;7.97;;;10.90;99.90;;;;;;5087031;28;20055;-46
2021/10/06 04:47:39;;;;;;;10.25;7.75;;;10.90;99.90;;;;;;5107002;28;20082;-45
2021/10/06 04:50:07;;;;;;;11.27;7.93;;;10.90;99.90;;;;;;5105740;28;20409;-45
2021/10/06 04:52:35;;;;;;;12.05;8.32;;;10.80;99.90;;;;;;5105835;28;20411;-45
2021/10/06 04:55:01;;;;;;;14.02;8.38;;;10.80;99.90;;;;;;5105323;28;20567;-47
2021/10/06 04:57:29;;;;;;;12.82;8.35;;;10.80;99.90;;;;;;5106955;28;20166;-46
2021/10/06 04:59:57;;;;;;;11.73;9.15;;;10.80;99.90;;;;;;5106753;28;20134;-46
2021/10/06 05:02:23;;;;;;;9.93;7.50;;;10.80;99.90;;;;;;5104803;28;20419;-47
2021/10/06 05:04:51;;;;;;;13.20;8.35;;;10.80;99.90;;;;;;5104484;28;20052;-45
2021/10/06 05:07:18;;;;;;;14.25;9.23;;;10.80;99.90;;;;;;5107048;28;20054;-45
2021/10/06 05:09:44;;;;;;;10.70;7.80;;;10.80;99.90;;;;;;5105321;28;20112;-45
2021/10/06 05:12:13;;;;;;;10.95;7.55;;;10.80;99.90;;;;;;5086286;28;20069;-46
2021/10/06 05:14:39;;;;;;;12.00;8.15;;;10.80;99.90;;;;;;5105539;28;20047;-48
2021/10/06 05:17:07;;;;;;;9.07;7.60;;;10.80;99.90;;;;;;5072194;28;20147;-45
2021/10/06 05:19:33;;;;;;;9.88;7.18;;;10.80;99.90;;;;;;5107246;28;20050;-45
2021/10/06 05:22:02;;;;;;;8.73;7.13;;;10.80;99.90;;;;;;5105374;28;20134;-46
2021/10/06 05:24:28;;;;;;;9.40;6.40;;;10.80;99.90;;;;;;5108128;28;20106;-45
2021/10/06 05:26:54;;;;;;;9.93;5.50;;;10.80;99.90;;;;;;5108547;28;20055;-47
2021/10/06 05:29:23;;;;;;;10.25;6.05;;;10.90;99.90;;;;;;5107738;28;20058;-46
2021/10/06 05:31:49;;;;;;;8.70;6.43;;;10.90;99.90;;;;;;5099129;28;20052;-46
2021/10/06 05:34:16;;;;;;;10.40;6.47;;;10.90;99.90;;;;;;5099391;28;20774;-47
2021/10/06 05:36:42;;;;;;;9.50;6.85;;;11.00;99.90;;;;;;5103346;28;20083;-47
2021/10/06 05:39:08;;;;;;;9.15;7.40;;;10.90;99.90;;;;;;5108545;28;20077;-47
2021/10/06 05:41:39;;;;;;;8.73;7.20;;;11.00;99.90;;;;;;5108621;28;20403;-46
2021/10/06 05:44:05;;;;;;;11.27;7.43;;;11.00;99.90;;;;;;5090345;28;20564;-49
2021/10/06 05:46:31;;;;;;;14.05;7.70;;;10.90;99.90;;;;;;5108371;28;20086;-47
2021/10/06 05:49:01;;;;;;;9.07;6.75;;;10.90;99.90;;;;;;5107605;28;20587;-50
2021/10/06 05:51:27;;;;;;;8.95;6.88;;;10.90;99.90;;;;;;5098189;28;20500;-48
2021/10/06 05:53:53;;;;;;;10.30;7.55;;;10.80;99.90;;;;;;5093006;28;20108;-49
2021/10/06 05:56:19;;;;;;;12.70;7.45;;;10.80;99.90;;;;;;5100822;28;20052;-49
2021/10/06 05:58:45;;;;;;;13.45;7.15;;;10.80;99.90;;;;;;5097851;28;20055;-51
2021/10/06 06:01:11;;;;;;;11.85;7.43;;;10.90;99.90;;;;;;5104427;28;20385;-49
2021/10/06 06:03:37;;;;;;;8.80;6.30;;;10.90;99.90;;;;;;5103788;28;20062;-46
2021/10/06 06:06:08;;;;;;;10.75;7.63;;;10.90;99.90;;;;;;5098698;28;20110;-50
2021/10/06 06:08:35;;;;;;;13.88;6.72;;;10.90;99.90;;;;;;5096261;28;20087;-47
2021/10/06 06:11:02;;;;;;;11.05;6.55;;;10.80;99.90;;;;;;5097155;28;20109;-47
2021/10/06 06:13:28;;;;;;;9.30;7.07;;;10.80;99.90;;;;;;5097630;28;20522;-47
2021/10/06 06:15:56;;;;;;;10.88;6.65;;;10.90;99.90;;;;;;5100570;28;20559;-49
2021/10/06 06:18:22;;;;;;;8.63;6.25;;;10.80;99.90;;;;;;5097640;28;20052;-50
2021/10/06 06:20:48;;;;;;;7.97;5.95;;;10.80;99.90;;;;;;5105915;28;20051;-46
2021/10/06 06:23:16;;;;;;;9.30;5.47;;;10.90;99.90;;;;;;5094992;28;20069;-52
2021/10/06 06:25:50;;;;;;;6.25;5.38;;;10.80;99.90;;;;;;5096184;28;20056;-46
2021/10/06 06:28:16;;;;;;;7.43;5.55;;;10.80;99.90;;;;;;5091559;28;20733;-49
2021/10/06 06:30:42;;;;;;;8.57;5.47;;;10.80;99.90;;;;;;5104390;28;20052;-47
2021/10/06 06:33:11;;;;;;;8.95;4.97;;;10.90;99.90;;;;;;5106961;28;20090;-48
2021/10/06 06:35:37;;;;;;;8.13;4.97;;;10.90;99.90;;;;;;5107343;28;20064;-49
2021/10/06 06:38:03;;;;;;;6.55;4.70;;;11.00;99.90;;;;;;5096228;28;20048;-52
2021/10/06 06:40:32;;;;;;;7.05;5.05;;;11.10;99.90;;;;;;5089969;28;20066;-46
2021/10/06 06:43:03;;;;;;;6.55;4.72;;;11.20;99.90;;;;;;5107945;28;20086;-50
2021/10/06 06:45:32;;;;;;;7.20;4.60;;;11.30;99.90;;;;;;5105601;28;20559;-46
2021/10/06 06:47:58;;;;;;;9.18;4.55;;;11.30;99.90;;;;;;5107558;28;20127;-49
2021/10/06 06:50:44;;;;;;;7.55;4.88;;;11.30;99.90;;;;;;5100140;28;20040;-49
2021/10/06 06:53:10;;;;;;;8.32;4.43;;;11.20;99.90;;;;;;5075966;28;20094;-47
2021/10/06 06:55:39;;;;;;;5.97;4.22;;;11.20;99.90;;;;;;5051390;28;20570;-48
2021/10/06 06:58:05;;;;;;;6.38;4.00;;;11.20;99.90;;;;;;5048397;28;20879;-50
2021/10/06 07:00:31;;;;;;;6.50;4.22;;;11.30;99.90;;;;;;5059012;28;20087;-47
2021/10/06 07:02:57;;;;;;;8.18;4.45;;;11.30;99.90;;;;;;5063470;28;20536;-47
2021/10/06 07:05:23;;;;;;;7.38;4.07;;;11.30;99.90;;;;;;5061655;28;20585;-48
2021/10/06 07:07:50;;;;;;;5.47;3.72;;;11.20;99.90;;;;;;5066919;28;20056;-47
2021/10/06 07:10:19;;;;;;;6.68;3.63;;;11.20;99.90;;;;;;5061546;28;20052;-51
2021/10/06 07:12:45;;;;;;;7.47;4.53;;;11.20;99.90;;;;;;5066949;28;20513;-50
2021/10/06 07:15:16;;;;;;;7.47;4.22;;;11.20;99.90;;;;;;5067497;28;20045;-46
2021/10/06 07:17:43;;;;;;;5.70;4.03;;;11.20;99.90;;;;;;5067286;28;20139;-51
2021/10/06 07:20:09;;;;;;;6.25;4.30;;;11.20;99.90;;;;;;5067780;28;20068;-47
2021/10/06 07:22:35;;;;;;;6.32;4.40;;;11.30;99.90;;;;;;5067102;28;20916;-47
2021/10/06 07:25:04;;;;;;;6.57;4.70;;;11.20;99.90;;;;;;5105977;28;20047;-48
2021/10/06 07:27:31;;;;;;;6.60;5.15;;;11.20;99.90;;;;;;5110472;28;20051;-48
2021/10/06 07:29:58;;;;;;;5.97;4.40;;;11.30;99.90;;;;;;5110429;28;20058;-48
2021/10/06 07:32:24;;;;;;;8.13;5.50;;;11.20;99.90;;;;;;5092706;28;20150;-50
2021/10/06 07:34:52;;;;;;;8.40;5.40;;;11.20;99.90;;;;;;5109243;28;20059;-50
2021/10/06 07:37:18;;;;;;;7.80;5.68;;;11.20;99.90;;;;;;5110196;28;20059;-48
2021/10/06 07:39:47;;;;;;;8.18;5.93;;;11.20;99.90;;;;;;5106317;28;20048;-49
2021/10/06 07:42:15;;;;;;;7.68;6.07;;;11.20;99.90;;;;;;5110482;28;20131;-48
2021/10/06 07:44:43;;;;;;;10.52;7.05;;;11.10;99.90;;;;;;5110840;28;20062;-49
2021/10/06 07:47:14;;;;;;;9.50;6.85;;;11.10;99.90;;;;;;5106205;28;20151;-48
2021/10/06 07:49:43;;;;;;;8.23;6.30;;;11.20;99.90;;;;;;5090545;28;20113;-47
2021/10/06 07:52:13;;;;;;;8.55;7.47;;;11.10;99.90;;;;;;5110737;28;20090;-50
2021/10/06 07:54:42;;;;;;;8.85;6.28;;;11.20;99.90;;;;;;5103205;28;20108;-50
2021/10/06 07:57:08;;;;;;;7.25;6.45;;;11.20;99.90;;;;;;5109374;28;20047;-52
2021/10/06 07:59:37;;;;;;;8.68;6.93;;;11.20;99.90;;;;;;5110006;28;20128;-48
2021/10/06 08:02:05;;;;;;;10.60;6.97;;;11.20;99.90;;;;;;5092075;28;20055;-47
2021/10/06 08:04:32;;;;;;;7.55;6.57;;;11.20;99.90;;;;;;5091902;28;20055;-46
2021/10/06 08:06:58;;;;;;;11.32;6.80;;;11.20;99.90;;;;;;5089676;28;20087;-48
2021/10/06 08:09:27;;;;;;;7.28;6.28;;;11.20;99.90;;;;;;5109328;28;20067;-48
2021/10/06 08:11:54;;;;;;;12.60;7.22;;;11.30;99.90;;;;;;5068502;28;20059;-57
2021/10/06 08:14:20;;;;;;;11.32;7.35;;;11.20;99.90;;;;;;5110176;28;20066;-55
2021/10/06 08:16:49;;;;;;;9.38;6.28;;;11.10;99.90;;;;;;5110709;28;20106;-55
2021/10/06 08:19:17;;;;;;;9.68;7.07;;;11.10;99.90;;;;;;5110489;28;20060;-55
2021/10/06 08:21:48;;;;;;;8.60;7.68;;;11.00;99.90;;;;;;5110072;28;20562;-55
2021/10/06 08:24:15;;;;;;;12.02;7.32;;;11.00;99.90;;;;;;5110276;28;20058;-53
2021/10/06 08:26:48;;;;;;;9.65;6.78;;;11.00;99.90;;;;;;5110462;28;20063;-53
2021/10/06 08:29:18;;;;;;;8.43;6.80;;;11.00;99.90;;;;;;5110245;28;20063;-55
2021/10/06 08:31:51;;;;;;;8.13;5.90;;;11.10;99.90;;;;;;5110269;28;20051;-53
2021/10/06 08:34:23;;;;;;;9.75;5.80;;;11.00;99.90;;;;;;5109651;28;20087;-53
2021/10/06 08:37:18;;;;;;;8.13;6.05;;;11.10;99.90;;;;;;5091347;28;20058;-52
2021/10/06 08:39:54;;;;;;;8.75;6.40;;;11.10;99.90;;;;;;5107947;28;20104;-54
2021/10/06 08:42:25;;;;;;;8.10;5.90;;;11.10;99.90;;;;;;5073860;28;20048;-51
2021/10/06 08:44:51;;;;;;;7.00;5.35;;;11.10;99.90;;;;;;5109552;28;20087;-52
2021/10/06 08:47:21;;;;;;;7.97;6.03;;;11.20;99.90;;;;;;5109855;28;20051;-51
2021/10/06 08:49:48;;;;;;;7.78;5.75;;;11.10;99.90;;;;;;5089588;28;20079;-51
2021/10/06 08:52:19;;;;;;;9.35;6.40;;;11.10;99.90;;;;;;5078496;28;20052;-48
2021/10/06 08:54:50;;;;;;;9.90;5.97;;;11.10;99.90;;;;;;5091236;28;20087;-52
2021/10/06 08:57:16;;;;;;;10.75;6.85;;;11.10;99.90;;;;;;5109325;28;20051;-49
2021/10/06 08:59:48;;;;;;;9.95;5.70;;;11.10;99.90;;;;;;5091171;28;20163;-54
2021/10/06 09:02:15;;;;;;;9.75;7.60;;;11.10;99.90;;;;;;5109615;28;20048;-49
2021/10/06 09:04:43;;;;;;;6.82;6.05;;;11.10;99.90;;;;;;5089874;28;20062;-52
2021/10/06 09:07:09;;;;;;;9.13;6.43;;;11.10;99.90;;;;;;5109628;28;20051;-48
2021/10/06 09:09:38;;;;;;;8.77;6.30;;;11.20;99.90;;;;;;5090858;28;20061;-52
2021/10/06 09:12:12;;;;;;;8.38;6.68;;;11.20;99.90;;;;;;5109467;28;20480;-52
2021/10/06 09:14:47;;;;;;;10.43;6.93;;;11.30;99.90;;;;;;5109884;28;20138;-52
2021/10/06 09:17:20;;;;;;;10.60;6.50;;;11.40;99.90;;;;;;5107902;28;20086;-48
2021/10/06 09:19:58;;;;;;;9.40;6.55;;;11.40;99.90;;;;;;5090916;28;20116;-51
2021/10/06 09:22:27;;;;;;;7.95;6.68;;;11.50;99.90;;;;;;5108862;28;20121;-49
2021/10/06 09:25:05;;;;;;;8.85;6.20;;;11.50;99.90;;;;;;5109119;28;20093;-48
2021/10/06 09:27:51;;;;;;;7.32;6.35;;;11.50;99.90;;;;;;5052376;28;20048;-51
2021/10/06 09:30:21;;;;;;;9.38;6.50;;;11.50;99.90;;;;;;5048484;28;20076;-51
2021/10/06 09:32:47;;;;;;;10.57;6.70;;;11.60;99.90;;;;;;5065758;28;20079;-51
2021/10/06 09:35:25;;;;;;;9.13;6.50;;;11.70;99.90;;;;;;5048927;28;20052;-49
2021/10/06 09:37:55;;;;;;;9.05;5.90;;;11.70;99.90;;;;;;5065647;28;20508;-47
2021/10/06 09:40:30;;;;;;;9.70;6.35;;;11.70;99.90;;;;;;5048852;28;20762;-53
2021/10/06 09:43:01;;;;;;;7.57;5.72;;;11.70;99.90;;;;;;5065602;28;20141;-50
2021/10/06 09:45:34;;;;;;;10.20;6.53;;;11.80;99.90;;;;;;5065606;28;20044;-52
2021/10/06 09:48:12;;;;;;;7.90;5.50;;;11.80;99.90;;;;;;5048922;28;20235;-50
2021/10/06 09:50:44;;;;;;;10.35;5.93;;;11.80;99.90;;;;;;5065051;28;20084;-48
2021/10/06 09:53:13;;;;;;;7.57;5.88;;;12.00;99.90;;;;;;5065005;28;20516;-51
2021/10/06 09:55:45;;;;;;;6.78;5.80;;;12.10;99.90;;;;;;5065743;28;20240;-51
2021/10/06 09:58:13;;;;;;;7.45;4.72;;;12.30;99.90;;;;;;5075311;28;20051;-52
2021/10/06 10:00:42;;;;;;;8.25;5.15;;;12.40;99.90;;;;;;5109432;28;20059;-52
2021/10/06 10:03:11;;;;;;;8.90;6.20;;;12.50;99.90;;;;;;5089958;28;20080;-51
2021/10/06 10:05:40;;;;;;;11.02;6.40;;;12.60;99.90;;;;;;5108207;28;20047;-52
2021/10/06 10:08:12;;;;;;;6.05;4.82;;;12.60;99.90;;;;;;5108924;28;20605;-53
2021/10/06 10:10:39;;;;;;;6.68;4.82;;;12.50;99.90;;;;;;5090181;28;20068;-47
2021/10/06 10:13:06;;;;;;;5.10;4.60;;;12.50;99.90;;;;;;5108719;28;20158;-50
2021/10/06 10:15:35;;;;;;;7.45;5.65;;;12.50;99.90;;;;;;5108545;28;20047;-50
2021/10/06 10:18:06;;;;;;;9.40;5.38;;;12.50;99.90;;;;;;5107881;28;20085;-49
2021/10/06 10:20:34;;;;;;;8.40;5.80;;;12.60;99.90;;;;;;5108199;28;20052;-49
2021/10/06 10:23:03;;;;;;;6.88;4.32;;;12.70;99.90;;;;;;5108046;28;20066;-49
2021/10/06 10:25:38;;;;;;;5.15;4.07;;;12.70;99.90;;;;;;5089597;28;20047;-51
2021/10/06 10:28:17;;;;;;;4.72;3.63;;;12.60;99.90;;;;;;5094003;28;20063;-53
2021/10/06 10:30:55;;;;;;;6.57;3.83;;;12.70;99.90;;;;;;5108346;28;20055;-50
2021/10/06 10:33:39;;;;;;;5.57;3.97;;;12.70;99.90;;;;;;5089461;28;20499;-51
2021/10/06 10:36:29;;;;;;;6.10;4.50;;;12.80;99.90;;;;;;5106230;28;20404;-51
2021/10/06 10:38:56;;;;;;;6.93;3.70;;;12.90;99.90;;;;;;5106808;28;20084;-53
2021/10/06 10:41:42;;;;;;;5.53;4.10;;;13.00;99.90;;;;;;5092501;28;20052;-54
2021/10/06 10:44:10;;;;;;;5.35;3.45;;;13.10;99.90;;;;;;5111365;28;20056;-54
2021/10/06 10:47:04;;;;;;;4.78;3.10;;;13.60;99.90;;;;;;5110894;28;20837;-50
2021/10/06 10:49:52;;;;;;;7.75;2.75;;;13.80;99.90;;;;;;5111746;28;20152;-54
2021/10/06 10:52:37;;;;;;;4.43;3.15;;;14.00;99.90;;;;;;5111818;28;20491;-54
2021/10/06 10:55:09;;;;;;;5.53;2.92;;;14.20;99.90;;;;;;5077170;28;20146;-55
2021/10/06 10:57:35;;;;;;;3.85;2.92;;;14.20;99.90;;;;;;5108667;28;20448;-55
2021/10/06 11:00:02;;;;;;;3.97;2.55;;;14.30;99.90;;;;;;5111861;28;20059;-54
2021/10/06 11:02:34;;;;;;;3.97;2.35;;;14.70;99.90;;;;;;5111755;28;20052;-55
2021/10/06 11:05:07;;;;;;;3.42;2.10;;;14.90;99.90;;;;;;5111222;28;20854;-45
2021/10/06 11:07:33;;;;;;;;;;;14.90;99.90;;;;;;5111335;28;20082;-44
2021/10/06 11:10:01;;;;;;;3.55;2.28;;;14.80;99.90;;;;;;5111197;28;20014;-45
2021/10/06 11:12:29;;;;;;;3.03;1.95;;;14.90;99.90;;;;;;5093229;28;20071;-44
2021/10/06 11:15:18;;;;;;;3.30;2.08;;;14.90;99.90;;;;;;5111414;28;20077;-47
2021/10/06 11:18:07;;;;;;;4.60;2.03;;;15.60;99.90;;;;;;5103534;28;20552;-49
2021/10/06 11:20:43;;;;;;;3.92;1.80;;;17.10;99.90;;;;;;5109136;28;20044;-48
2021/10/06 11:23:48;;;;;;;3.25;1.75;;;18.20;99.90;;;;;;5110523;28;20400;-52
2021/10/06 11:26:14;;;;;;;2.10;1.55;;;19.10;99.90;;;;;;5105039;28;20055;-51
2021/10/06 11:28:46;;;;;;;2.78;1.20;;;19.90;99.90;;;;;;5111520;28;20044;-51
2021/10/06 11:31:12;;;;;;;;;;;20.70;99.90;;;;;;5111983;28;20054;-48
2021/10/06 11:33:38;;;;;;;2.55;1.40;;;20.80;99.90;;;;;;5110531;28;19966;-50
2021/10/06 11:36:17;;;;;;;4.18;1.20;;;21.50;99.90;;;;;;5104191;28;20060;-48
2021/10/06 11:38:47;;;;;;;2.58;1.10;;;22.00;99.90;;;;;;5111428;28;20074;-52
2021/10/06 11:41:17;;;;;;;3.67;1.25;;;22.10;99.90;;;;;;5109969;28;20443;-49
2021/10/06 11:43:51;;;;;;;2.80;0.95;;;22.20;99.90;;;;;;5111731;28;20047;-52
2021/10/06 11:46:32;;;;;;;2.88;0.90;;;22.40;99.90;;;;;;5111412;28;20047;-50
2021/10/06 11:49:00;;;;;;;1.88;0.90;;;22.90;99.90;;;;;;5111140;28;20056;-50
2021/10/06 11:51:41;;;;;;;1.95;0.82;;;22.50;99.90;;;;;;5110552;28;20343;-49
2021/10/06 11:54:07;;;;;;;4.18;1.05;;;22.90;95.50;;;;;;5104465;28;20058;-52
2021/10/06 11:56:33;;;;;;;1.95;1.15;;;22.50;99.90;;;;;;5110025;28;20120;-52
2021/10/06 11:59:14;;;;;;;2.90;1.00;;;23.00;99.80;;;;;;5110136;28;20063;-52
2021/10/06 12:01:50;;;;;;;2.92;1.33;;;23.40;88.50;;;;;;5107704;28;20800;-52
2021/10/06 12:04:18;;;;;;;4.45;0.95;;;22.90;94.50;;;;;;5107016;28;20059;-52
2021/10/06 12:06:46;;;;;;;2.47;1.02;;;22.90;93.20;;;;;;5108844;28;20537;-50
2021/10/06 12:09:15;;;;;;;3.08;1.38;;;22.20;93.40;;;;;;5105543;28;20770;-51
2021/10/06 12:11:44;;;;;;;4.55;1.00;;;21.40;94.60;;;;;;5097846;28;20507;-48
2021/10/06 12:14:16;;;;;;;1.80;1.20;;;20.70;99.90;;;;;;5090397;28;20051;-48
2021/10/06 12:16:43;;;;;;;1.52;1.00;;;19.80;99.90;;;;;;5097953;28;20403;-46
2021/10/06 12:19:09;;;;;;;1.88;1.10;;;20.10;99.90;;;;;;5109897;28;20605;-50
2021/10/06 12:21:35;;;;;;;3.38;1.23;;;20.00;99.90;;;;;;5109307;28;20043;-44
2021/10/06 12:24:25;;;;;;;2.50;1.27;;;19.40;99.90;;;;;;5110095;28;20503;-50
2021/10/06 12:26:53;;;;;;;3.30;1.55;;;18.70;99.90;;;;;;5106149;28;20086;-48
2021/10/06 12:29:26;;;;;;;2.45;1.17;;;18.40;99.90;;;;;;5110496;28;20583;-50
2021/10/06 12:32:09;;;;;;;2.60;1.20;;;18.40;99.90;;;;;;5089679;28;20050;-49
2021/10/06 12:34:36;;;;;;;3.47;1.50;;;18.40;99.90;;;;;;5109638;28;20585;-48
2021/10/06 12:37:12;;;;;;;3.58;1.27;;;18.70;99.90;;;;;;5076505;28;20514;-49
2021/10/06 12:39:40;;;;;;;3.67;1.30;;;19.40;99.90;;;;;;5103344;28;20131;-50
2021/10/06 12:42:08;;;;;;;3.47;1.40;;;19.90;99.90;;;;;;5108756;28;20108;-50
2021/10/06 12:44:45;;;;;;;2.92;1.02;;;20.80;99.90;;;;;;5108852;28;20054;-48
2021/10/06 12:47:17;;;;;;;3.00;0.90;;;22.40;98.20;;;;;;5108887;28;20059;-51
2021/10/06 12:49:54;;;;;;;2.60;0.90;;;23.00;95.80;;;;;;5107042;28;20051;-48
2021/10/06 12:52:30;;;;;;;2.63;0.95;;;23.40;83.50;;;;;;5109363;28;20059;-48
2021/10/06 12:55:13;;;;;;;3.88;1.20;;;23.10;78.00;;;;;;5088814;28;20131;-48